createdAt,value
2018-09-01T00:00:02.971Z,995.77
2018-09-01T00:01:02.976Z,995.78
2018-09-01T00:02:02.970Z,995.73
2018-09-01T00:03:02.975Z,995.76
2018-09-01T00:04:02.968Z,995.72
2018-09-01T00:05:02.968Z,995.75
2018-09-01T00:06:02.968Z,995.72
2018-09-01T00:07:02.968Z,995.71
2018-09-01T00:08:02.991Z,995.66
2018-09-01T00:09:02.966Z,995.66
2018-09-01T00:10:02.967Z,995.66
2018-09-01T00:11:03.009Z,995.65
2018-09-01T00:12:02.962Z,995.61
2018-09-01T00:13:02.967Z,995.6
2018-09-01T00:14:02.960Z,995.58
2018-09-01T00:15:02.966Z,995.58
2018-09-01T00:16:02.961Z,995.58
2018-09-01T00:17:02.974Z,995.63
2018-09-01T00:18:02.960Z,995.57
2018-09-01T00:19:02.961Z,995.59
2018-09-01T00:20:02.959Z,995.6
2018-09-01T00:21:02.960Z,995.55
2018-09-01T00:22:02.956Z,995.55
2018-09-01T00:23:02.959Z,995.55
2018-09-01T00:24:02.956Z,995.57
2018-09-01T00:25:02.956Z,995.55
2018-09-01T00:26:02.956Z,995.55
2018-09-01T00:27:02.952Z,995.52
2018-09-01T00:28:02.955Z,995.52
2018-09-01T00:29:02.951Z,995.52
2018-09-01T00:30:02.951Z,995.55
2018-09-01T00:31:02.950Z,995.55
2018-09-01T00:32:02.952Z,995.57
2018-09-01T00:33:02.950Z,995.58
2018-09-01T00:34:02.958Z,995.56
2018-09-01T00:35:02.953Z,995.58
2018-09-01T00:36:02.947Z,995.53
2018-09-01T00:37:02.952Z,995.53
2018-09-01T00:38:02.945Z,995.47
2018-09-01T00:39:02.956Z,995.52
2018-09-01T00:40:02.943Z,995.46
2018-09-01T00:41:02.946Z,995.49
2018-09-01T00:42:02.943Z,995.46
2018-09-01T00:43:02.942Z,995.45
2018-09-01T00:44:02.938Z,995.48
2018-09-01T00:45:02.958Z,995.51
2018-09-01T00:46:02.941Z,995.5
2018-09-01T00:47:02.982Z,995.51
2018-09-01T00:48:02.986Z,995.54
2018-09-01T00:49:02.941Z,995.51
2018-09-01T00:50:02.936Z,995.55
2018-09-01T00:51:02.936Z,995.51
2018-09-01T00:52:02.937Z,995.49
2018-09-01T00:53:02.933Z,995.5
2018-09-01T00:54:02.932Z,995.46
2018-09-01T00:55:02.934Z,995.48
2018-09-01T00:56:02.945Z,995.46
2018-09-01T00:57:02.933Z,995.51
2018-09-01T00:58:02.933Z,995.45
2018-09-01T00:59:02.931Z,995.46
2018-09-01T01:00:02.929Z,995.48
2018-09-01T01:01:02.933Z,995.5
2018-09-01T01:02:02.930Z,995.48
2018-09-01T01:03:02.929Z,995.45
2018-09-01T01:04:02.927Z,995.52
2018-09-01T01:05:02.926Z,995.52
2018-09-01T01:06:02.926Z,995.54
2018-09-01T01:07:02.926Z,995.61
2018-09-01T01:08:02.924Z,995.55
2018-09-01T01:09:02.923Z,995.61
2018-09-01T01:10:02.924Z,995.62
2018-09-01T01:11:02.926Z,995.64
2018-09-01T01:12:02.919Z,995.67
2018-09-01T01:13:02.923Z,995.63
2018-09-01T01:14:02.925Z,995.69
2018-09-01T01:15:02.919Z,995.68
2018-09-01T01:16:02.918Z,995.71
2018-09-01T01:17:02.916Z,995.74
2018-09-01T01:18:02.917Z,995.77
2018-09-01T01:19:02.919Z,995.76
2018-09-01T01:20:02.913Z,995.81
2018-09-01T01:21:02.917Z,995.79
2018-09-01T01:22:02.916Z,995.83
2018-09-01T01:23:02.925Z,995.83
2018-09-01T01:24:02.914Z,995.84
2018-09-01T01:25:02.914Z,995.86
2018-09-01T01:26:02.915Z,995.82
2018-09-01T01:27:02.912Z,995.86
2018-09-01T01:28:02.915Z,995.89
2018-09-01T01:29:02.911Z,995.8
2018-09-01T01:30:02.915Z,995.82
2018-09-01T01:31:02.911Z,995.79
2018-09-01T01:32:02.916Z,995.79
2018-09-01T01:33:04.013Z,995.75
2018-09-01T01:34:02.908Z,995.76
2018-09-01T01:35:02.915Z,995.74
2018-09-01T01:36:02.904Z,995.72
2018-09-01T01:37:02.904Z,995.68
2018-09-01T01:38:02.904Z,995.72
2018-09-01T01:39:02.903Z,995.7
2018-09-01T01:40:02.905Z,995.72
2018-09-01T01:41:02.902Z,995.72
2018-09-01T01:42:02.899Z,995.77
2018-09-01T01:43:02.900Z,995.72
2018-09-01T01:44:02.898Z,995.73
2018-09-01T01:45:02.904Z,995.7
2018-09-01T01:46:02.898Z,995.72
2018-09-01T01:47:02.903Z,995.75
2018-09-01T01:48:02.896Z,995.7
2018-09-01T01:49:02.894Z,995.76
2018-09-01T01:50:02.893Z,995.75
2018-09-01T01:51:02.894Z,995.81
2018-09-01T01:52:02.891Z,995.75
2018-09-01T01:53:02.889Z,995.8
2018-09-01T01:54:02.889Z,995.85
2018-09-01T01:55:02.886Z,995.8
2018-09-01T01:56:02.890Z,995.83
2018-09-01T01:57:02.887Z,995.82
2018-09-01T01:58:02.888Z,995.83
2018-09-01T01:59:02.886Z,995.87
2018-09-01T02:00:02.887Z,995.87
2018-09-01T02:01:02.887Z,995.89
2018-09-01T02:02:02.886Z,995.88
2018-09-01T02:03:02.891Z,995.9
2018-09-01T02:04:02.885Z,995.92
2018-09-01T02:05:02.881Z,995.9
2018-09-01T02:06:02.878Z,995.92
2018-09-01T02:07:02.889Z,995.92
2018-09-01T02:08:02.881Z,995.91
2018-09-01T02:09:02.878Z,995.88
2018-09-01T02:10:02.881Z,995.88
2018-09-01T02:11:02.873Z,995.88
2018-09-01T02:12:02.875Z,995.89
2018-09-01T02:13:02.875Z,995.9
2018-09-01T02:14:02.870Z,995.9
2018-09-01T02:15:02.872Z,995.88
2018-09-01T02:16:03.439Z,995.85
2018-09-01T02:17:02.869Z,995.86
2018-09-01T02:18:02.890Z,995.88
2018-09-01T02:19:02.871Z,995.89
2018-09-01T02:20:02.868Z,995.91
2018-09-01T02:21:02.868Z,995.89
2018-09-01T02:22:02.863Z,995.89
2018-09-01T02:23:02.875Z,995.89
2018-09-01T02:24:02.864Z,995.88
2018-09-01T02:25:02.862Z,995.88
2018-09-01T02:26:02.859Z,995.86
2018-09-01T02:27:02.858Z,995.89
2018-09-01T02:28:02.859Z,995.87
2018-09-01T02:29:02.855Z,995.86
2018-09-01T02:30:02.874Z,995.85
2018-09-01T02:31:02.853Z,995.89
2018-09-01T02:32:02.857Z,995.86
2018-09-01T02:33:02.857Z,995.87
2018-09-01T02:34:02.851Z,995.86
2018-09-01T02:35:02.850Z,995.89
2018-09-01T02:36:02.850Z,995.87
2018-09-01T02:37:02.846Z,995.88
2018-09-01T02:38:02.846Z,995.87
2018-09-01T02:39:02.854Z,995.84
2018-09-01T02:40:02.843Z,995.87
2018-09-01T02:41:02.846Z,995.85
2018-09-01T02:42:02.859Z,995.88
2018-09-01T02:43:02.850Z,995.9
2018-09-01T02:44:02.844Z,995.92
2018-09-01T02:45:02.856Z,995.9
2018-09-01T02:46:02.841Z,995.93
2018-09-01T02:47:02.834Z,995.95
2018-09-01T02:48:02.833Z,995.94
2018-09-01T02:49:02.833Z,995.92
2018-09-01T02:50:02.835Z,995.95
2018-09-01T02:51:02.837Z,995.98
2018-09-01T02:52:02.837Z,995.98
2018-09-01T02:53:02.844Z,996
2018-09-01T02:54:02.832Z,996.01
2018-09-01T02:55:02.834Z,996.01
2018-09-01T02:56:02.838Z,996
2018-09-01T02:57:02.839Z,996
2018-09-01T02:58:02.825Z,995.97
2018-09-01T02:59:02.820Z,995.93
2018-09-01T03:00:02.832Z,995.95
2018-09-01T03:01:02.827Z,995.9
2018-09-01T03:02:02.823Z,995.92
2018-09-01T03:03:02.827Z,995.91
2018-09-01T03:04:02.827Z,995.88
2018-09-01T03:05:02.826Z,995.93
2018-09-01T03:06:02.825Z,995.9
2018-09-01T03:07:02.825Z,995.9
2018-09-01T03:08:02.809Z,995.88
2018-09-01T03:09:02.811Z,995.93
2018-09-01T03:10:02.806Z,995.95
2018-09-01T03:11:02.804Z,995.91
2018-09-01T03:12:02.802Z,995.9
2018-09-01T03:13:02.816Z,995.91
2018-09-01T03:14:02.800Z,995.94
2018-09-01T03:15:02.812Z,995.96
2018-09-01T03:16:02.798Z,995.97
2018-09-01T03:17:02.813Z,995.99
2018-09-01T03:18:02.807Z,995.96
2018-09-01T03:19:02.797Z,995.93
2018-09-01T03:20:02.794Z,995.94
2018-09-01T03:21:02.792Z,995.92
2018-09-01T03:22:02.791Z,995.96
2018-09-01T03:23:02.785Z,995.9
2018-09-01T03:24:02.797Z,995.95
2018-09-01T03:25:02.797Z,995.97
2018-09-01T03:26:02.800Z,995.94
2018-09-01T03:27:02.793Z,995.96
2018-09-01T03:28:02.803Z,995.95
2018-09-01T03:29:02.779Z,995.93
2018-09-01T03:30:02.783Z,995.91
2018-09-01T03:31:02.786Z,995.92
2018-09-01T03:32:02.785Z,995.89
2018-09-01T03:33:02.784Z,995.91
2018-09-01T03:34:02.781Z,995.9
2018-09-01T03:35:02.773Z,995.94
2018-09-01T03:36:02.772Z,995.97
2018-09-01T03:37:02.771Z,995.97
2018-09-01T03:38:02.774Z,995.98
2018-09-01T03:39:02.772Z,995.97
2018-09-01T03:40:02.765Z,995.99
2018-09-01T03:41:02.771Z,996.03
2018-09-01T03:42:02.761Z,996.02
2018-09-01T03:43:02.762Z,996.03
2018-09-01T03:44:02.760Z,996
2018-09-01T03:45:02.762Z,996.04
2018-09-01T03:46:02.754Z,996
2018-09-01T03:47:02.756Z,996.06
2018-09-01T03:48:02.756Z,996.04
2018-09-01T03:49:02.751Z,996.01
2018-09-01T03:50:02.749Z,996.03
2018-09-01T03:51:02.750Z,996.05
2018-09-01T03:52:02.764Z,996.06
2018-09-01T03:53:02.747Z,996.02
2018-09-01T03:54:02.747Z,996.05
2018-09-01T03:55:02.747Z,996.07
2018-09-01T03:56:02.742Z,996.08
2018-09-01T03:57:02.742Z,996.08
2018-09-01T03:58:02.740Z,996.08
2018-09-01T03:59:02.740Z,996.08
2018-09-01T04:00:02.738Z,996.11
2018-09-01T04:01:02.733Z,996.12
2018-09-01T04:02:02.734Z,996.06
2018-09-01T04:03:02.743Z,996.1
2018-09-01T04:04:03.531Z,996.13
2018-09-01T04:05:02.728Z,996.1
2018-09-01T04:06:02.726Z,996.07
2018-09-01T04:07:02.726Z,996.1
2018-09-01T04:08:02.730Z,996.1
2018-09-01T04:09:02.724Z,996.09
2018-09-01T04:10:02.723Z,996.07
2018-09-01T04:11:02.719Z,996.07
2018-09-01T04:12:02.715Z,996.08
2018-09-01T04:13:02.716Z,996.07
2018-09-01T04:14:02.713Z,996.03
2018-09-01T04:15:02.710Z,996.06
2018-09-01T04:16:02.730Z,996.05
2018-09-01T04:17:02.711Z,996.02
2018-09-01T04:18:02.709Z,996.05
2018-09-01T04:19:02.705Z,996.02
2018-09-01T04:20:02.707Z,996
2018-09-01T04:21:02.702Z,996
2018-09-01T04:22:02.701Z,995.96
2018-09-01T04:23:02.701Z,995.99
2018-09-01T04:24:02.696Z,995.98
2018-09-01T04:25:02.696Z,996.01
2018-09-01T04:26:02.704Z,996
2018-09-01T04:27:02.697Z,996.05
2018-09-01T04:28:02.692Z,996.03
2018-09-01T04:29:02.691Z,996.04
2018-09-01T04:30:02.686Z,996.09
2018-09-01T04:31:02.690Z,996.1
2018-09-01T04:32:02.752Z,996.1
2018-09-01T04:33:02.687Z,996.13
2018-09-01T04:34:02.682Z,996.11
2018-09-01T04:35:02.682Z,996.14
2018-09-01T04:36:02.675Z,996.17
2018-09-01T04:37:02.676Z,996.2
2018-09-01T04:38:02.672Z,996.18
2018-09-01T04:39:02.671Z,996.18
2018-09-01T04:40:02.673Z,996.16
2018-09-01T04:41:02.669Z,996.2
2018-09-01T04:42:02.666Z,996.2
2018-09-01T04:43:02.667Z,996.18
2018-09-01T04:44:02.672Z,996.14
2018-09-01T04:45:02.664Z,996.13
2018-09-01T04:46:02.659Z,996.15
2018-09-01T04:47:02.759Z,996.2
2018-09-01T04:48:02.655Z,996.18
2018-09-01T04:49:02.657Z,996.19
2018-09-01T04:50:02.654Z,996.18
2018-09-01T04:51:02.660Z,996.18
2018-09-01T04:52:02.649Z,996.18
2018-09-01T04:53:02.651Z,996.19
2018-09-01T04:54:02.654Z,996.2
2018-09-01T04:55:02.709Z,996.15
2018-09-01T04:56:02.643Z,996.18
2018-09-01T04:57:02.641Z,996.22
2018-09-01T04:58:02.644Z,996.26
2018-09-01T04:59:02.642Z,996.23
2018-09-01T05:00:02.637Z,996.28
2018-09-01T05:01:02.769Z,996.29
2018-09-01T05:02:02.653Z,996.29
2018-09-01T05:03:02.634Z,996.32
2018-09-01T05:04:02.629Z,996.34
2018-09-01T05:05:02.625Z,996.34
2018-09-01T05:06:02.629Z,996.37
2018-09-01T05:07:02.628Z,996.36
2018-09-01T05:08:02.622Z,996.35
2018-09-01T05:09:02.626Z,996.36
2018-09-01T05:10:02.621Z,996.38
2018-09-01T05:11:02.616Z,996.39
2018-09-01T05:12:02.623Z,996.4
2018-09-01T05:13:02.621Z,996.41
2018-09-01T05:14:02.612Z,996.47
2018-09-01T05:15:02.610Z,996.43
2018-09-01T05:16:02.610Z,996.43
2018-09-01T05:17:02.621Z,996.49
2018-09-01T05:18:02.607Z,996.46
2018-09-01T05:19:02.608Z,996.47
2018-09-01T05:20:02.603Z,996.46
2018-09-01T05:21:02.602Z,996.43
2018-09-01T05:22:02.605Z,996.47
2018-09-01T05:23:02.603Z,996.45
2018-09-01T05:24:02.737Z,996.45
2018-09-01T05:25:02.595Z,996.46
2018-09-01T05:26:02.593Z,996.47
2018-09-01T05:27:02.593Z,996.48
2018-09-01T05:28:02.593Z,996.5
2018-09-01T05:29:02.591Z,996.46
2018-09-01T05:30:02.592Z,996.41
2018-09-01T05:31:02.590Z,996.42
2018-09-01T05:32:02.598Z,996.4
2018-09-01T05:33:02.584Z,996.4
2018-09-01T05:34:02.589Z,996.42
2018-09-01T05:35:02.594Z,996.36
2018-09-01T05:36:02.584Z,996.4
2018-09-01T05:37:02.581Z,996.39
2018-09-01T05:38:02.581Z,996.38
2018-09-01T05:39:02.578Z,996.4
2018-09-01T05:40:02.576Z,996.4
2018-09-01T05:41:02.575Z,996.43
2018-09-01T05:42:02.576Z,996.41
2018-09-01T05:43:02.572Z,996.45
2018-09-01T05:44:02.568Z,996.4
2018-09-01T05:45:02.572Z,996.44
2018-09-01T05:46:02.574Z,996.41
2018-09-01T05:47:02.571Z,996.45
2018-09-01T05:48:02.564Z,996.43
2018-09-01T05:49:02.566Z,996.46
2018-09-01T05:50:02.563Z,996.51
2018-09-01T05:51:02.562Z,996.49
2018-09-01T05:52:02.560Z,996.53
2018-09-01T05:53:02.558Z,996.52
2018-09-01T05:54:02.557Z,996.51
2018-09-01T05:55:02.555Z,996.57
2018-09-01T05:56:02.557Z,996.58
2018-09-01T05:57:02.553Z,996.6
2018-09-01T05:58:02.551Z,996.61
2018-09-01T05:59:02.550Z,996.66
2018-09-01T06:00:02.549Z,996.68
2018-09-01T06:01:02.546Z,996.69
2018-09-01T06:02:02.546Z,996.67
2018-09-01T06:03:02.546Z,996.68
2018-09-01T06:04:02.543Z,996.67
2018-09-01T06:05:02.560Z,996.66
2018-09-01T06:06:02.623Z,996.56
2018-09-01T06:07:02.538Z,996.58
2018-09-01T06:08:02.541Z,996.55
2018-09-01T06:09:02.539Z,996.54
2018-09-01T06:10:02.535Z,996.56
2018-09-01T06:11:02.538Z,996.56
2018-09-01T06:12:02.535Z,996.56
2018-09-01T06:13:02.532Z,996.57
2018-09-01T06:14:02.526Z,996.58
2018-09-01T06:15:02.534Z,996.57
2018-09-01T06:16:02.528Z,996.61
2018-09-01T06:17:02.522Z,996.63
2018-09-01T06:18:02.631Z,996.61
2018-09-01T06:19:02.578Z,996.62
2018-09-01T06:20:02.518Z,996.61
2018-09-01T06:21:02.523Z,996.62
2018-09-01T06:22:02.520Z,996.66
2018-09-01T06:23:02.521Z,996.67
2018-09-01T06:24:02.623Z,996.65
2018-09-01T06:25:02.636Z,996.64
2018-09-01T06:26:02.521Z,996.69
2018-09-01T06:27:02.512Z,996.67
2018-09-01T06:28:02.528Z,996.65
2018-09-01T06:29:02.523Z,996.67
2018-09-01T06:30:02.554Z,996.69
2018-09-01T06:31:02.519Z,996.71
2018-09-01T06:32:02.509Z,996.61
2018-09-01T06:33:02.667Z,996.61
2018-09-01T06:34:02.503Z,996.65
2018-09-01T06:35:02.499Z,996.64
2018-09-01T06:36:02.500Z,996.64
2018-09-01T06:37:02.501Z,996.66
2018-09-01T06:38:02.503Z,996.67
2018-09-01T06:39:02.499Z,996.71
2018-09-01T06:40:02.506Z,996.71
2018-09-01T06:41:02.492Z,996.7
2018-09-01T06:42:02.513Z,996.71
2018-09-01T06:43:02.566Z,996.72
2018-09-01T06:44:02.499Z,996.73
2018-09-01T06:45:02.500Z,996.67
2018-09-01T06:46:02.496Z,996.64
2018-09-01T06:47:02.501Z,996.67
2018-09-01T06:48:02.527Z,996.66
2018-09-01T06:49:02.484Z,996.7
2018-09-01T06:50:02.488Z,996.72
2018-09-01T06:51:02.485Z,996.71
2018-09-01T06:52:02.488Z,996.72
2018-09-01T06:53:02.489Z,996.7
2018-09-01T06:54:02.484Z,996.72
2018-09-01T06:55:02.492Z,996.72
2018-09-01T06:56:02.499Z,996.81
2018-09-01T06:57:02.483Z,996.79
2018-09-01T06:58:02.482Z,996.84
2018-09-01T06:59:02.481Z,996.85
2018-09-01T07:00:02.480Z,996.86
2018-09-01T07:01:02.472Z,996.91
2018-09-01T07:02:02.477Z,996.92
2018-09-01T07:03:02.482Z,996.94
2018-09-01T07:04:02.471Z,996.97
2018-09-01T07:05:02.472Z,997
2018-09-01T07:06:02.471Z,997.05
2018-09-01T07:07:02.467Z,997.05
2018-09-01T07:08:02.468Z,997.03
2018-09-01T07:09:02.470Z,997.03
2018-09-01T07:10:02.466Z,997.08
2018-09-01T07:11:02.469Z,997.04
2018-09-01T07:12:02.465Z,997.05
2018-09-01T07:13:02.469Z,997.1
2018-09-01T07:14:02.473Z,997.08
2018-09-01T07:15:02.465Z,997.1
2018-09-01T07:16:02.466Z,997.11
2018-09-01T07:17:02.467Z,997.16
2018-09-01T07:18:02.464Z,997.16
2018-09-01T07:19:02.464Z,997.15
2018-09-01T07:20:02.470Z,997.22
2018-09-01T07:21:02.462Z,997.19
2018-09-01T07:22:02.461Z,997.2
2018-09-01T07:23:02.461Z,997.27
2018-09-01T07:24:02.462Z,997.24
2018-09-01T07:25:02.460Z,997.32
2018-09-01T07:26:02.461Z,997.29
2018-09-01T07:27:02.462Z,997.33
2018-09-01T07:28:02.462Z,997.32
2018-09-01T07:29:02.461Z,997.34
2018-09-01T07:30:02.477Z,997.33
2018-09-01T07:31:02.845Z,997.32
2018-09-01T07:32:02.460Z,997.31
2018-09-01T07:33:02.458Z,997.34
2018-09-01T07:34:02.459Z,997.36
2018-09-01T07:35:02.459Z,997.36
2018-09-01T07:36:03.511Z,997.41
2018-09-01T07:37:02.463Z,997.41
2018-09-01T07:38:02.463Z,997.44
2018-09-01T07:39:02.458Z,997.4
2018-09-01T07:40:02.459Z,997.44
2018-09-01T07:41:02.459Z,997.41
2018-09-01T07:42:02.463Z,997.48
2018-09-01T07:43:02.572Z,997.47
2018-09-01T07:44:02.462Z,997.51
2018-09-01T07:45:02.462Z,997.47
2018-09-01T07:46:02.461Z,997.51
2018-09-01T07:47:02.462Z,997.5
2018-09-01T07:48:02.463Z,997.52
2018-09-01T07:49:02.475Z,997.48
2018-09-01T07:50:02.525Z,997.38
2018-09-01T07:51:02.465Z,997.4
2018-09-01T07:52:02.464Z,997.39
2018-09-01T07:53:02.471Z,997.41
2018-09-01T07:54:02.465Z,997.47
2018-09-01T07:55:02.466Z,997.44
2018-09-01T07:56:02.549Z,997.44
2018-09-01T07:57:02.468Z,997.49
2018-09-01T07:58:02.473Z,997.46
2018-09-01T07:59:02.471Z,997.41
2018-09-01T08:00:02.500Z,997.52
2018-09-01T08:01:02.476Z,997.45
2018-09-01T08:02:02.476Z,997.45
2018-09-01T08:03:02.484Z,997.47
2018-09-01T08:04:02.480Z,997.43
2018-09-01T08:05:02.486Z,997.43
2018-09-01T08:06:02.483Z,997.39
2018-09-01T08:07:02.487Z,997.35
2018-09-01T08:08:02.492Z,997.38
2018-09-01T08:09:02.499Z,997.39
2018-09-01T08:10:02.496Z,997.37
2018-09-01T08:11:02.502Z,997.38
2018-09-01T08:12:02.503Z,997.45
2018-09-01T08:13:02.518Z,997.43
2018-09-01T08:14:02.674Z,997.4
2018-09-01T08:15:02.513Z,997.38
2018-09-01T08:16:02.512Z,997.41
2018-09-01T08:17:02.516Z,997.42
2018-09-01T08:18:02.522Z,997.43
2018-09-01T08:19:02.539Z,997.45
2018-09-01T08:20:02.522Z,997.47
2018-09-01T08:21:02.543Z,997.48
2018-09-01T08:22:02.545Z,997.53
2018-09-01T08:23:02.547Z,997.53
2018-09-01T08:24:02.545Z,997.55
2018-09-01T08:25:02.551Z,997.52
2018-09-01T08:26:02.615Z,997.5
2018-09-01T08:27:02.546Z,997.54
2018-09-01T08:28:02.547Z,997.47
2018-09-01T08:29:02.544Z,997.52
2018-09-01T08:30:02.545Z,997.55
2018-09-01T08:31:02.549Z,997.57
2018-09-01T08:32:02.546Z,997.53
2018-09-01T08:33:02.550Z,997.52
2018-09-01T08:34:02.552Z,997.51
2018-09-01T08:35:02.551Z,997.57
2018-09-01T08:36:02.556Z,997.57
2018-09-01T08:37:02.556Z,997.55
2018-09-01T08:38:02.556Z,997.53
2018-09-01T08:39:02.561Z,997.53
2018-09-01T08:40:02.569Z,997.57
2018-09-01T08:41:02.566Z,997.59
2018-09-01T08:42:02.569Z,997.63
2018-09-01T08:43:02.575Z,997.6
2018-09-01T08:44:02.583Z,997.59
2018-09-01T08:45:02.580Z,997.6
2018-09-01T08:46:02.597Z,997.62
2018-09-01T08:47:02.582Z,997.65
2018-09-01T08:48:02.586Z,997.64
2018-09-01T08:49:02.591Z,997.66
2018-09-01T08:50:02.591Z,997.66
2018-09-01T08:51:02.598Z,997.65
2018-09-01T08:52:02.598Z,997.66
2018-09-01T08:53:02.599Z,997.65
2018-09-01T08:54:02.662Z,997.71
2018-09-01T08:55:02.623Z,997.72
2018-09-01T08:56:02.626Z,997.73
2018-09-01T08:57:02.623Z,997.72
2018-09-01T08:58:02.627Z,997.75
2018-09-01T08:59:02.650Z,997.75
2018-09-01T09:00:02.623Z,997.77
2018-09-01T09:01:02.626Z,997.77
2018-09-01T09:02:02.625Z,997.78
2018-09-01T09:03:02.629Z,997.79
2018-09-01T09:04:02.632Z,997.8
2018-09-01T09:05:02.633Z,997.79
2018-09-01T09:06:02.631Z,997.83
2018-09-01T09:07:02.628Z,997.85
2018-09-01T09:08:02.631Z,997.85
2018-09-01T09:09:02.634Z,997.88
2018-09-01T09:10:02.633Z,997.92
2018-09-01T09:11:02.641Z,997.89
2018-09-01T09:12:02.645Z,997.93
2018-09-01T09:13:02.639Z,997.94
2018-09-01T09:14:02.650Z,997.91
2018-09-01T09:15:02.645Z,997.96
2018-09-01T09:16:02.645Z,997.96
2018-09-01T09:17:02.644Z,997.95
2018-09-01T09:18:02.656Z,997.96
2018-09-01T09:19:02.649Z,997.97
2018-09-01T09:20:02.668Z,997.92
2018-09-01T09:21:02.700Z,997.88
2018-09-01T09:22:02.660Z,997.84
2018-09-01T09:23:02.673Z,997.85
2018-09-01T09:24:02.659Z,997.85
2018-09-01T09:25:02.667Z,997.83
2018-09-01T09:26:02.669Z,997.85
2018-09-01T09:27:02.667Z,997.82
2018-09-01T09:28:02.667Z,997.8
2018-09-01T09:29:02.669Z,997.79
2018-09-01T09:30:02.670Z,997.74
2018-09-01T09:31:02.674Z,997.74
2018-09-01T09:32:02.677Z,997.75
2018-09-01T09:33:02.680Z,997.71
2018-09-01T09:34:02.688Z,997.77
2018-09-01T09:35:02.683Z,997.68
2018-09-01T09:36:02.687Z,997.64
2018-09-01T09:37:02.689Z,997.62
2018-09-01T09:38:02.696Z,997.63
2018-09-01T09:39:02.695Z,997.59
2018-09-01T09:40:02.699Z,997.63
2018-09-01T09:41:02.715Z,997.57
2018-09-01T09:42:02.727Z,997.54
2018-09-01T09:43:02.703Z,997.56
2018-09-01T09:44:02.702Z,997.58
2018-09-01T09:45:02.706Z,997.57
2018-09-01T09:46:02.722Z,997.56
2018-09-01T09:47:02.715Z,997.51
2018-09-01T09:48:02.719Z,997.52
2018-09-01T09:49:02.719Z,997.52
2018-09-01T09:50:02.724Z,997.51
2018-09-01T09:51:02.722Z,997.48
2018-09-01T09:52:02.724Z,997.48
2018-09-01T09:53:02.786Z,997.43
2018-09-01T09:54:02.729Z,997.44
2018-09-01T09:55:02.735Z,997.38
2018-09-01T09:56:02.737Z,997.41
2018-09-01T09:57:02.740Z,997.4
2018-09-01T09:58:02.741Z,997.37
2018-09-01T09:59:02.744Z,997.33
2018-09-01T10:00:02.766Z,997.35
2018-09-01T10:01:02.878Z,997.33
2018-09-01T10:02:02.747Z,997.32
2018-09-01T10:03:02.751Z,997.31
2018-09-01T10:04:02.755Z,997.28
2018-09-01T10:05:02.755Z,997.38
2018-09-01T10:06:02.754Z,997.36
2018-09-01T10:07:02.757Z,997.34
2018-09-01T10:08:02.756Z,997.36
2018-09-01T10:09:02.764Z,997.35
2018-09-01T10:10:02.763Z,997.37
2018-09-01T10:11:02.786Z,997.37
2018-09-01T10:12:02.768Z,997.34
2018-09-01T10:13:02.769Z,997.32
2018-09-01T10:14:02.769Z,997.32
2018-09-01T10:15:02.771Z,997.34
2018-09-01T10:16:02.779Z,997.32
2018-09-01T10:17:02.775Z,997.34
2018-09-01T10:18:02.778Z,997.34
2018-09-01T10:19:02.784Z,997.29
2018-09-01T10:20:02.825Z,997.29
2018-09-01T10:21:02.797Z,997.36
2018-09-01T10:22:02.786Z,997.33
2018-09-01T10:23:02.790Z,997.27
2018-09-01T10:24:02.791Z,997.31
2018-09-01T10:25:02.798Z,997.29
2018-09-01T10:26:02.799Z,997.23
2018-09-01T10:27:02.855Z,997.27
2018-09-01T10:28:02.799Z,997.25
2018-09-01T10:29:02.807Z,997.25
2018-09-01T10:30:02.807Z,997.28
2018-09-01T10:31:02.808Z,997.32
2018-09-01T10:32:02.808Z,997.28
2018-09-01T10:33:02.851Z,997.31
2018-09-01T10:34:02.849Z,997.36
2018-09-01T10:35:02.817Z,997.45
2018-09-01T10:36:02.820Z,997.41
2018-09-01T10:37:02.831Z,997.3
2018-09-01T10:38:02.830Z,997.27
2018-09-01T10:39:02.822Z,997.29
2018-09-01T10:40:02.834Z,997.29
2018-09-01T10:41:02.830Z,997.33
2018-09-01T10:42:02.833Z,997.33
2018-09-01T10:43:02.834Z,997.29
2018-09-01T10:44:02.838Z,997.21
2018-09-01T10:45:02.840Z,997.2
2018-09-01T10:46:02.850Z,997.14
2018-09-01T10:47:02.841Z,997.12
2018-09-01T10:48:02.846Z,997.19
2018-09-01T10:49:02.850Z,997.15
2018-09-01T10:50:02.850Z,997.18
2018-09-01T10:51:02.855Z,997.25
2018-09-01T10:52:02.856Z,997.21
2018-09-01T10:53:02.861Z,997.19
2018-09-01T10:54:02.860Z,997.12
2018-09-01T10:55:02.861Z,997.12
2018-09-01T10:56:02.871Z,997.15
2018-09-01T10:57:02.866Z,997.07
2018-09-01T10:58:02.867Z,997.15
2018-09-01T10:59:02.900Z,997.09
2018-09-01T11:00:02.883Z,997.12
2018-09-01T11:01:02.873Z,997.15
2018-09-01T11:02:02.875Z,997.09
2018-09-01T11:03:02.905Z,997.14
2018-09-01T11:04:02.881Z,997.15
2018-09-01T11:05:02.912Z,997.17
2018-09-01T11:06:02.882Z,997.19
2018-09-01T11:07:02.887Z,997.17
2018-09-01T11:08:02.886Z,997.17
2018-09-01T11:09:02.888Z,997.18
2018-09-01T11:10:02.893Z,997.19
2018-09-01T11:11:02.897Z,997.24
2018-09-01T11:12:02.898Z,997.37
2018-09-01T11:13:02.899Z,997.35
2018-09-01T11:14:02.921Z,997.33
2018-09-01T11:15:02.908Z,997.28
2018-09-01T11:16:02.903Z,997.22
2018-09-01T11:17:02.908Z,997.21
2018-09-01T11:18:02.923Z,997.21
2018-09-01T11:19:02.909Z,997.2
2018-09-01T11:20:02.938Z,997.21
2018-09-01T11:21:02.918Z,997.19
2018-09-01T11:22:02.918Z,997.21
2018-09-01T11:23:02.925Z,997.18
2018-09-01T11:24:02.919Z,997.23
2018-09-01T11:25:02.928Z,997.24
2018-09-01T11:26:02.924Z,997.26
2018-09-01T11:27:02.929Z,997.28
2018-09-01T11:28:02.967Z,997.29
2018-09-01T11:29:02.933Z,997.31
2018-09-01T11:30:02.943Z,997.29
2018-09-01T11:31:02.939Z,997.28
2018-09-01T11:32:02.944Z,997.25
2018-09-01T11:33:02.942Z,997.25
2018-09-01T11:34:02.968Z,997.21
2018-09-01T11:35:02.950Z,997.22
2018-09-01T11:36:02.961Z,997.22
2018-09-01T11:37:02.970Z,997.27
2018-09-01T11:38:02.953Z,997.23
2018-09-01T11:39:02.978Z,997.26
2018-09-01T11:40:02.964Z,997.22
2018-09-01T11:41:03.010Z,997.27
2018-09-01T11:42:02.968Z,997.25
2018-09-01T11:43:03.110Z,997.24
2018-09-01T11:44:02.971Z,997.29
2018-09-01T11:45:02.981Z,997.26
2018-09-01T11:46:02.972Z,997.23
2018-09-01T11:47:02.976Z,997.21
2018-09-01T11:48:02.979Z,997.22
2018-09-01T11:49:02.977Z,997.3
2018-09-01T11:50:03.060Z,997.28
2018-09-01T11:51:02.986Z,997.28
2018-09-01T11:52:03.022Z,997.37
2018-09-01T11:53:02.991Z,997.34
2018-09-01T11:54:02.993Z,997.33
2018-09-01T11:55:02.993Z,997.45
2018-09-01T11:56:02.995Z,997.35
2018-09-01T11:57:03.000Z,997.32
2018-09-01T11:58:03.003Z,997.23
2018-09-01T11:59:03.002Z,997.22
2018-09-01T12:00:03.004Z,997.33
2018-09-01T12:01:03.011Z,997.38
2018-09-01T12:02:03.039Z,997.31
2018-09-01T12:03:03.012Z,997.26
2018-09-01T12:04:03.015Z,997.26
2018-09-01T12:05:03.026Z,997.18
2018-09-01T12:06:03.022Z,997.22
2018-09-01T12:07:03.025Z,997.15
2018-09-01T12:08:03.029Z,997.22
2018-09-01T12:09:03.070Z,997.24
2018-09-01T12:10:03.031Z,997.3
2018-09-01T12:11:03.035Z,997.38
2018-09-01T12:12:03.039Z,997.42
2018-09-01T12:13:03.039Z,997.42
2018-09-01T12:14:03.074Z,997.34
2018-09-01T12:15:03.042Z,997.34
2018-09-01T12:16:03.044Z,997.35
2018-09-01T12:17:03.050Z,997.35
2018-09-01T12:18:03.056Z,997.32
2018-09-01T12:19:03.052Z,997.37
2018-09-01T12:20:03.060Z,997.33
2018-09-01T12:21:03.055Z,997.31
2018-09-01T12:22:03.059Z,997.29
2018-09-01T12:23:03.069Z,997.32
2018-09-01T12:24:03.065Z,997.26
2018-09-01T12:25:03.065Z,997.23
2018-09-01T12:26:03.069Z,997.18
2018-09-01T12:27:03.074Z,997.19
2018-09-01T12:28:03.092Z,997.18
2018-09-01T12:29:03.077Z,997.16
2018-09-01T12:30:03.082Z,997.1
2018-09-01T12:31:03.081Z,997.16